createdAt,value
2023-04-23T00:00:37.171Z,91.76
2023-04-23T00:03:10.053Z,92.62
2023-04-23T00:05:37.808Z,92.29
2023-04-23T00:08:04.660Z,91.36
2023-04-23T00:10:31.421Z,91.49
2023-04-23T00:12:59.389Z,91.01
2023-04-23T00:15:26.407Z,90.90
2023-04-23T00:17:52.992Z,91.27
2023-04-23T00:20:20.053Z,90.53
2023-04-23T00:22:46.505Z,91.51
2023-04-23T00:25:12.996Z,91.85
2023-04-23T00:27:39.478Z,92.50
2023-04-23T00:30:06.963Z,92.84
2023-04-23T00:32:33.490Z,93.48
2023-04-23T00:35:00.087Z,92.96
2023-04-23T00:37:26.594Z,93.90
2023-04-23T00:39:53.105Z,95.56
2023-04-23T00:42:20.224Z,95.87
2023-04-23T00:44:46.840Z,96.09
2023-04-23T00:47:15.113Z,96.90
2023-04-23T00:49:42.872Z,98.22
2023-04-23T00:52:09.534Z,97.64
2023-04-23T00:54:36.049Z,98.18
2023-04-23T00:57:03.670Z,99.55
2023-04-23T00:59:31.705Z,100.00
2023-04-23T01:01:58.698Z,100.00
2023-04-23T01:04:28.056Z,100.00
2023-04-23T01:06:55.869Z,100.00
2023-04-23T01:09:23.265Z,100.00
2023-04-23T01:11:51.496Z,100.00
2023-04-23T01:14:17.984Z,100.00
2023-04-23T01:16:44.636Z,100.00
2023-04-23T01:19:11.567Z,100.00
2023-04-23T01:21:42.429Z,100.00
2023-04-23T01:24:10.584Z,100.00
2023-04-23T01:26:37.358Z,100.00
2023-04-23T01:29:04.044Z,100.00
2023-04-23T01:31:31.290Z,100.00
2023-04-23T01:33:59.512Z,100.00
2023-04-23T01:36:27.108Z,100.00
2023-04-23T01:38:53.697Z,100.00
2023-04-23T01:41:20.326Z,100.00
2023-04-23T01:43:46.828Z,100.00
2023-04-23T01:46:13.391Z,100.00
2023-04-23T01:48:40.443Z,100.00
2023-04-23T01:51:07.146Z,100.00
2023-04-23T01:53:33.579Z,100.00
2023-04-23T01:56:01.389Z,100.00
2023-04-23T01:58:27.880Z,100.00
2023-04-23T02:00:54.422Z,100.00
2023-04-23T02:03:21.100Z,100.00
2023-04-23T02:05:49.065Z,100.00
2023-04-23T02:08:16.355Z,100.00
2023-04-23T02:10:42.829Z,100.00
2023-04-23T02:13:09.326Z,100.00
2023-04-23T02:15:38.197Z,100.00
2023-04-23T02:18:05.063Z,100.00
2023-04-23T02:20:31.700Z,100.00
2023-04-23T02:22:58.281Z,100.00
2023-04-23T02:25:24.759Z,100.00
2023-04-23T02:27:51.256Z,100.00
2023-04-23T02:30:17.847Z,100.00
2023-04-23T02:32:44.453Z,100.00
2023-04-23T02:35:11.054Z,100.00
2023-04-23T02:37:37.779Z,100.00
2023-04-23T02:40:08.129Z,100.00
2023-04-23T02:42:34.633Z,100.00
2023-04-23T02:45:01.136Z,100.00
2023-04-23T02:47:27.665Z,100.00
2023-04-23T02:49:54.227Z,100.00
2023-04-23T02:52:20.751Z,100.00
2023-04-23T02:54:47.308Z,100.00
2023-04-23T02:57:15.591Z,100.00
2023-04-23T02:59:43.131Z,100.00
2023-04-23T03:02:09.872Z,100.00
2023-04-23T03:04:36.453Z,100.00
2023-04-23T03:07:02.983Z,100.00
2023-04-23T03:09:29.443Z,100.00
2023-04-23T03:11:57.689Z,100.00
2023-04-23T03:14:24.264Z,100.00
2023-04-23T03:16:50.940Z,100.00
2023-04-23T03:19:17.504Z,100.00
2023-04-23T03:21:43.968Z,100.00
2023-04-23T03:24:13.525Z,100.00
2023-04-23T03:26:39.992Z,100.00
2023-04-23T03:29:06.864Z,100.00
2023-04-23T03:31:33.554Z,100.00
2023-04-23T03:34:00.073Z,100.00
2023-04-23T03:36:26.600Z,100.00
2023-04-23T03:38:53.093Z,100.00
2023-04-23T03:41:19.588Z,100.00
2023-04-23T03:43:46.184Z,100.00
2023-04-23T03:46:12.677Z,100.00
2023-04-23T03:48:39.128Z,100.00
2023-04-23T03:51:05.740Z,100.00
2023-04-23T03:53:32.277Z,100.00
2023-04-23T03:55:58.703Z,100.00
2023-04-23T03:58:25.205Z,100.00
2023-04-23T04:00:51.771Z,100.00
2023-04-23T04:03:18.569Z,100.00
2023-04-23T04:05:45.465Z,100.00
2023-04-23T04:08:12.070Z,100.00
2023-04-23T04:10:38.577Z,100.00
2023-04-23T04:13:05.140Z,100.00
2023-04-23T04:15:32.985Z,100.00
2023-04-23T04:18:01.185Z,100.00
2023-04-23T04:20:30.695Z,100.00
2023-04-23T04:22:57.153Z,100.00
2023-04-23T04:25:24.217Z,100.00
2023-04-23T04:27:51.014Z,100.00
2023-04-23T04:30:17.542Z,100.00
2023-04-23T04:32:45.636Z,100.00
2023-04-23T04:35:15.470Z,100.00
2023-04-23T04:37:43.834Z,100.00
2023-04-23T04:40:11.601Z,100.00
2023-04-23T04:42:39.544Z,100.00
2023-04-23T04:45:08.675Z,100.00
2023-04-23T04:47:35.260Z,100.00
2023-04-23T04:50:02.217Z,100.00
2023-04-23T04:52:28.739Z,100.00
2023-04-23T04:54:55.338Z,100.00
2023-04-23T04:57:22.957Z,100.00
2023-04-23T04:59:50.321Z,100.00
2023-04-23T05:02:17.061Z,100.00
2023-04-23T05:04:43.763Z,100.00
2023-04-23T05:07:11.465Z,100.00
2023-04-23T05:09:37.944Z,100.00
2023-04-23T05:12:07.423Z,100.00
2023-04-23T05:14:34.063Z,100.00
2023-04-23T05:17:00.825Z,100.00
2023-04-23T05:19:27.535Z,100.00
2023-04-23T05:21:54.347Z,100.00
2023-04-23T05:24:20.806Z,100.00
2023-04-23T05:26:47.425Z,100.00
2023-04-23T05:29:17.890Z,100.00
2023-04-23T05:31:44.502Z,100.00
2023-04-23T05:34:11.036Z,100.00
2023-04-23T05:36:37.587Z,100.00
2023-04-23T05:39:04.051Z,100.00
2023-04-23T05:41:30.660Z,100.00
2023-04-23T05:43:57.154Z,100.00
2023-04-23T05:46:23.753Z,100.00
2023-04-23T05:48:50.307Z,100.00
2023-04-23T05:51:17.194Z,100.00
2023-04-23T05:53:43.704Z,100.00
2023-04-23T05:56:10.341Z,100.00
2023-04-23T05:58:38.742Z,100.00
2023-04-23T06:01:05.442Z,100.00
2023-04-23T06:03:32.076Z,100.00
2023-04-23T06:05:58.800Z,100.00
2023-04-23T06:08:25.455Z,100.00
2023-04-23T06:10:51.949Z,100.00
2023-04-23T06:13:18.440Z,100.00
2023-04-23T06:15:44.930Z,100.00
2023-04-23T06:18:11.563Z,100.00
2023-04-23T06:20:38.069Z,100.00
2023-04-23T06:23:04.625Z,100.00
2023-04-23T06:25:31.135Z,100.00
2023-04-23T06:27:58.233Z,100.00
2023-04-23T06:30:24.854Z,100.00
2023-04-23T06:32:51.434Z,100.00
2023-04-23T06:35:17.999Z,100.00
2023-04-23T06:37:44.448Z,100.00
2023-04-23T06:40:11.451Z,100.00
2023-04-23T06:42:37.913Z,100.00
2023-04-23T06:45:06.264Z,100.00
2023-04-23T06:47:33.149Z,100.00
2023-04-23T06:50:02.502Z,100.00
2023-04-23T06:52:29.088Z,97.38
2023-04-23T06:54:55.589Z,95.39
2023-04-23T06:57:22.167Z,93.55
2023-04-23T06:59:48.713Z,94.70
2023-04-23T07:02:15.195Z,91.60
2023-04-23T07:04:42.193Z,87.50
2023-04-23T07:07:08.856Z,85.40
2023-04-23T07:09:35.453Z,85.17
2023-04-23T07:12:02.312Z,81.52
2023-04-23T07:14:28.798Z,79.26
2023-04-23T07:16:55.513Z,81.02
2023-04-23T07:19:22.061Z,77.03
2023-04-23T07:21:48.534Z,76.69
2023-04-23T07:24:15.039Z,75.98
2023-04-23T07:26:41.567Z,76.45
2023-04-23T07:29:10.497Z,71.89
2023-04-23T07:31:37.712Z,71.53
2023-04-23T07:34:04.232Z,71.57
2023-04-23T07:36:32.777Z,69.13
2023-04-23T07:38:59.269Z,68.32
2023-04-23T07:41:25.740Z,65.78
2023-04-23T07:43:52.347Z,64.38
2023-04-23T07:46:20.097Z,64.02
2023-04-23T07:48:46.669Z,63.56
2023-04-23T07:51:13.188Z,66.40
2023-04-23T07:53:39.706Z,64.88
2023-04-23T07:56:06.429Z,65.29
2023-04-23T07:58:33.290Z,64.73
2023-04-23T08:00:59.805Z,65.41
2023-04-23T08:03:28.213Z,61.87
2023-04-23T08:05:54.848Z,60.98
2023-04-23T08:08:21.425Z,57.16
2023-04-23T08:10:48.484Z,57.33
2023-04-23T08:13:15.046Z,55.45
2023-04-23T08:15:41.660Z,53.26
2023-04-23T08:18:08.172Z,51.73
2023-04-23T08:20:35.043Z,51.56
2023-04-23T08:23:01.718Z,48.51
2023-04-23T08:25:28.253Z,51.97
2023-04-23T08:27:54.810Z,52.04
2023-04-23T08:30:21.516Z,51.65
2023-04-23T08:32:51.110Z,52.18
2023-04-23T08:35:17.965Z,48.39
2023-04-23T08:37:44.532Z,47.95
2023-04-23T08:40:11.477Z,53.09
2023-04-23T08:42:44.100Z,51.85
2023-04-23T08:45:11.904Z,52.05
2023-04-23T08:47:43.875Z,53.62
2023-04-23T08:50:18.132Z,53.44
2023-04-23T08:52:54.379Z,53.96
2023-04-23T08:55:22.047Z,51.86
2023-04-23T08:57:49.780Z,50.83
2023-04-23T09:00:18.995Z,49.21
2023-04-23T09:02:47.678Z,48.49
2023-04-23T09:05:15.307Z,47.86
2023-04-23T09:07:42.703Z,48.18
2023-04-23T09:10:11.715Z,48.72
2023-04-23T09:12:41.394Z,48.32
2023-04-23T09:15:11.050Z,46.35
2023-04-23T09:17:45.026Z,45.42
2023-04-23T09:20:13.211Z,46.41
2023-04-23T09:22:47.772Z,46.60
2023-04-23T09:25:20.954Z,45.42
2023-04-23T09:27:47.948Z,47.40
2023-04-23T09:30:15.129Z,47.98
2023-04-23T09:32:43.290Z,49.49
2023-04-23T09:35:12.212Z,48.52
2023-04-23T09:37:42.361Z,46.30
2023-04-23T09:40:09.627Z,47.71
2023-04-23T09:42:37.079Z,45.77
2023-04-23T09:45:08.386Z,45.83
2023-04-23T09:47:38.842Z,47.28
2023-04-23T09:50:06.260Z,47.44
2023-04-23T09:52:34.012Z,47.62
2023-04-23T09:55:05.310Z,49.09
2023-04-23T09:57:38.964Z,44.84
2023-04-23T10:00:22.921Z,45.28
2023-04-23T10:02:51.128Z,42.40
2023-04-23T10:05:24.907Z,40.91
2023-04-23T10:07:59.929Z,39.78
2023-04-23T10:10:26.727Z,37.60
2023-04-23T10:12:55.803Z,40.16
2023-04-23T10:15:25.272Z,40.39
2023-04-23T10:17:52.515Z,41.22
2023-04-23T10:20:21.042Z,42.46
2023-04-23T10:22:48.448Z,42.16
2023-04-23T10:25:15.317Z,45.40
2023-04-23T10:27:53.208Z,45.08
2023-04-23T10:30:21.192Z,44.73
2023-04-23T10:32:49.828Z,43.97
2023-04-23T10:35:16.639Z,43.90
2023-04-23T10:37:46.535Z,44.14
2023-04-23T10:40:15.096Z,44.06
2023-04-23T10:42:44.145Z,41.88
2023-04-23T10:45:23.530Z,41.79
2023-04-23T10:47:55.108Z,39.98
2023-04-23T10:50:35.917Z,42.16
2023-04-23T10:53:03.178Z,38.12
2023-04-23T10:55:31.441Z,37.36
2023-04-23T10:58:05.871Z,35.74
2023-04-23T11:00:41.215Z,31.76
2023-04-23T11:03:37.308Z,31.87
2023-04-23T11:06:06.325Z,29.52
2023-04-23T11:08:35.647Z,30.31
2023-04-23T11:11:07.851Z,31.49
2023-04-23T11:13:34.775Z,29.85
2023-04-23T11:16:18.632Z,30.54
2023-04-23T11:19:06.409Z,29.98
2023-04-23T11:21:58.521Z,28.90
2023-04-23T11:24:27.407Z,29.36
2023-04-23T11:26:57.208Z,27.04
2023-04-23T11:29:26.445Z,26.84
2023-04-23T11:32:02.262Z,28.36
2023-04-23T11:34:29.381Z,26.23
2023-04-23T11:36:59.404Z,26.61
2023-04-23T11:39:27.022Z,27.12
2023-04-23T11:41:54.008Z,25.58
2023-04-23T11:44:21.439Z,24.02
2023-04-23T11:46:49.621Z,26.76
2023-04-23T11:49:17.456Z,25.38
2023-04-23T11:51:45.638Z,24.82
2023-04-23T11:54:13.801Z,27.79
2023-04-23T11:56:41.260Z,28.08
2023-04-23T11:59:08.345Z,29.76
2023-04-23T12:01:48.263Z,31.39
2023-04-23T12:04:19.546Z,30.40
2023-04-23T12:06:47.829Z,32.08
2023-04-23T12:09:16.019Z,32.15
2023-04-23T12:11:43.885Z,31.79
2023-04-23T12:14:12.392Z,32.16
2023-04-23T12:16:43.503Z,32.42
2023-04-23T12:19:13.398Z,33.86
2023-04-23T12:22:03.082Z,33.12
2023-04-23T12:24:30.548Z,34.12
2023-04-23T12:27:00.685Z,34.96
2023-04-23T12:29:30.091Z,34.10
2023-04-23T12:31:59.181Z,33.61
2023-04-23T12:34:25.809Z,33.11
2023-04-23T12:36:55.145Z,34.62
2023-04-23T12:39:31.991Z,33.74
2023-04-23T12:42:05.186Z,32.69
2023-04-23T12:44:34.513Z,31.75
2023-04-23T12:47:08.408Z,31.00
2023-04-23T12:49:36.254Z,32.22
2023-04-23T12:52:04.401Z,33.00
2023-04-23T12:54:33.215Z,34.01
2023-04-23T12:57:02.986Z,33.04
2023-04-23T12:59:30.886Z,32.94
2023-04-23T13:02:01.906Z,32.88
2023-04-23T13:04:29.982Z,33.98
2023-04-23T13:06:57.008Z,34.24
2023-04-23T13:09:39.953Z,31.11
2023-04-23T13:12:06.418Z,31.82
2023-04-23T13:14:32.926Z,31.85
2023-04-23T13:16:59.461Z,32.53
2023-04-23T13:19:26.313Z,32.08
2023-04-23T13:21:53.553Z,33.42
2023-04-23T13:24:20.135Z,33.77
2023-04-23T13:26:46.605Z,33.58
2023-04-23T13:29:13.207Z,34.17
2023-04-23T13:31:39.846Z,35.08
2023-04-23T13:34:06.384Z,34.17
2023-04-23T13:36:32.926Z,34.46
2023-04-23T13:38:59.478Z,35.83
2023-04-23T13:41:26.016Z,34.58
2023-04-23T13:43:52.777Z,32.09
2023-04-23T13:46:19.762Z,33.11
2023-04-23T13:48:46.420Z,34.46
2023-04-23T13:51:32.646Z,33.73
2023-04-23T13:53:59.422Z,32.31
2023-04-23T13:56:30.396Z,33.38
2023-04-23T13:59:18.056Z,33.97
2023-04-23T14:01:47.230Z,35.35
2023-04-23T14:04:13.918Z,33.74
2023-04-23T14:06:40.637Z,34.94
2023-04-23T14:09:07.129Z,35.23
2023-04-23T14:11:33.887Z,36.03
2023-04-23T14:14:01.209Z,35.40
2023-04-23T14:16:27.861Z,33.89
2023-04-23T14:18:54.455Z,34.99
2023-04-23T14:21:22.461Z,35.08
2023-04-23T14:24:00.871Z,34.71
2023-04-23T14:29:30.884Z,34.47
2023-04-23T14:31:57.389Z,35.15
2023-04-23T14:34:23.972Z,32.95
2023-04-23T14:36:53.095Z,31.32
2023-04-23T14:39:22.232Z,30.89
2023-04-23T14:41:49.032Z,32.11
2023-04-23T14:44:15.623Z,32.05
2023-04-23T14:46:42.118Z,32.68
2023-04-23T14:49:08.923Z,31.46
2023-04-23T14:51:35.717Z,31.51
2023-04-23T14:54:02.308Z,31.21
2023-04-23T14:56:28.848Z,31.09
2023-04-23T14:58:55.429Z,32.50
2023-04-23T15:01:21.981Z,34.05
2023-04-23T15:03:48.699Z,35.44
2023-04-23T15:06:15.571Z,36.32
2023-04-23T15:08:42.115Z,37.22
